Impacts METAR Board INFO
IDs:

KSEA - Seattle-Tacoma Intl, WA, US

Updated at: 0944 UTC 19 Jan 2018
Potential Impact None Slight Moderate High
Time18/21Z 18/22Z 18/23Z 19/00Z 19/01Z 19/02Z 19/03Z 19/04Z 19/05Z 19/06Z 19/07Z 19/08Z 19/09Z
VIS10 10 5 9 10 10 10 10 10 10 10 10 10
CIG50 65 33 27 27 37 -- -- 80 -- 90 70 85
CoverOVCOVCOVCOVCBKNBKNSCTSCTBKNSCTBKNBKNBKN
FltCatVFRVFRMVFRMVFRMVFRVFRVFRVFRVFRVFRVFRVFRVFR
WX-RA-RA-RA BR-RA-RA----------------
WDir2002502301801901301401500170170180180
WSpd11 6 5 5 11 9 10 11 0 8 8 8 7
WGst-- -- -- -- -- -- -- -- -- -- -- -- --
Raw hourly METARs
KSEA 182053Z 20011KT 10SM -RA FEW035 BKN050 OVC100 09/03 A2979 RMK AO2 RAB40 SLP094 P0000 60000 T00890033 56017
KSEA 182153Z 25006KT 10SM -RA SCT038 BKN065 OVC120 08/04 A2977 RMK AO2 SLP088 P0001 T00780044
KSEA 182305Z 23005KT 5SM -RA BR SCT026 OVC033 07/06 A2976 RMK AO2 P0001 T00720056
KSEA 182353Z 18005KT 9SM -RA FEW009 BKN027 OVC070 07/06 A2977 RMK AO2 SLP089 P0005 60008 T00670056 10100 20067 55006
KSEA 190053Z 19011KT 10SM -RA BKN027 BKN055 BKN080 07/04 A2978 RMK AO2 SLP093 P0002 T00670044
KSEA 190153Z 13009KT 10SM BKN037 BKN060 06/04 A2979 RMK AO2 RAE22 SLP095 P0000 T00610039
KSEA 190253Z 14010KT 10SM SCT046 SCT080 06/04 A2979 RMK AO2 SLP096 60002 T00560039 51007
KSEA 190353Z 15011KT 10SM FEW048 SCT180 05/03 A2978 RMK AO2 SLP092 T00500033
KSEA 190453Z 00000KT 10SM SCT038 BKN080 BKN180 06/02 A2980 RMK AO2 SLP099 T00560022
KSEA 190553Z 17008KT 10SM FEW050 SCT070 04/02 A2980 RMK AO2 RAB24E33 SLP099 P0000 60002 T00390022 10072 20039 53002
KSEA 190653Z 17008KT 10SM FEW050 SCT065 BKN090 05/02 A2979 RMK AO2 SLP097 T00500022
KSEA 190753Z 18008KT 10SM BKN070 05/02 A2981 RMK AO2 SLP103 T00500022 401110039
KSEA 190853Z 18007KT 10SM BKN085 05/02 A2982 RMK AO2 SLP105 T00500017 53006